Time;durP1;ratioP1;P1;durP2;ratioP2;P2;SDS_P1;SDS_P2;PMS_P1;PMS_P2;Temp;Humidity;BMP_temperature;BMP_pressure;BME280_temperature;BME280_humidity;BME280_pressure;Samples;Min_cycle;Max_cycle;Signal;HPM_P1;HPM_P2
2022/11/04 00:02:14;;;;;;;10.40;9.38;;;12.60;99.90;;;;;;5047062;28;20268;-76
2022/11/04 00:04:42;;;;;;;10.60;9.60;;;12.60;99.90;;;;;;5047755;28;20684;-76
2022/11/04 00:09:52;;;;;;;11.18;9.90;;;12.50;99.90;;;;;;5048750;28;20198;-76
2022/11/04 00:12:24;;;;;;;9.55;8.65;;;12.50;99.90;;;;;;5049144;28;20214;-75
2022/11/04 00:14:51;;;;;;;10.30;9.27;;;12.50;99.90;;;;;;5043080;28;20187;-76
2022/11/04 00:17:21;;;;;;;9.20;8.30;;;12.50;99.90;;;;;;5044270;28;20595;-76
2022/11/04 00:30:56;;;;;;;10.60;9.50;;;12.50;99.90;;;;;;5049772;28;20198;-76
2022/11/04 00:33:26;;;;;;;10.18;9.25;;;12.60;99.90;;;;;;5048603;28;20287;-76
2022/11/04 00:35:56;;;;;;;8.45;7.63;;;12.60;99.90;;;;;;5043866;28;20199;-76
2022/11/04 00:38:26;;;;;;;8.73;7.82;;;12.50;99.90;;;;;;5041590;28;20227;-76
2022/11/04 00:40:53;;;;;;;8.00;6.72;;;12.50;99.90;;;;;;5045328;28;20246;-76
2022/11/04 00:43:20;;;;;;;16.90;7.50;;;12.40;99.90;;;;;;5048645;28;20230;-76
2022/11/04 00:45:48;;;;;;;8.98;8.18;;;12.40;99.90;;;;;;5045198;28;20202;-75
2022/11/04 00:48:16;;;;;;;8.32;7.53;;;12.30;99.90;;;;;;5045917;28;20674;-76
2022/11/04 00:50:44;;;;;;;8.30;7.50;;;12.30;99.90;;;;;;5042007;28;20217;-76
2022/11/04 00:53:11;;;;;;;7.13;6.53;;;12.40;99.90;;;;;;5048587;28;20218;-76
2022/11/04 00:55:40;;;;;;;9.68;8.70;;;12.40;99.90;;;;;;5050788;28;20203;-76
2022/11/04 00:58:07;;;;;;;9.45;8.45;;;12.40;99.90;;;;;;5051859;28;20219;-77
2022/11/04 01:00:35;;;;;;;10.75;9.65;;;12.30;99.90;;;;;;5034838;28;20302;-76
2022/11/04 01:03:03;;;;;;;10.13;8.95;;;12.30;99.90;;;;;;5051784;28;20706;-76
2022/11/04 01:05:30;;;;;;;9.50;8.30;;;12.30;99.90;;;;;;5051229;28;20195;-76
2022/11/04 01:07:58;;;;;;;10.75;9.40;;;12.30;99.90;;;;;;5043421;28;20227;-76
2022/11/04 01:10:26;;;;;;;10.13;9.02;;;12.30;99.90;;;;;;5050382;28;20648;-76
2022/11/04 01:12:55;;;;;;;9.93;8.93;;;12.40;99.90;;;;;;5044070;28;20272;-77
2022/11/04 01:15:22;;;;;;;10.23;9.18;;;12.40;99.90;;;;;;5047733;28;20199;-76
2022/11/04 01:17:50;;;;;;;19.73;8.50;;;12.40;99.90;;;;;;5045136;28;20234;-76
2022/11/04 01:20:19;;;;;;;22.05;8.88;;;12.40;99.90;;;;;;5049519;28;20711;-77
2022/11/04 01:22:47;;;;;;;19.30;7.88;;;12.40;99.90;;;;;;5049666;28;20301;-76
2022/11/04 01:25:15;;;;;;;49.22;9.55;;;12.30;99.90;;;;;;5052179;28;20595;-77
2022/11/04 01:27:43;;;;;;;8.25;7.45;;;12.20;99.90;;;;;;5047213;28;20304;-76
2022/11/04 01:30:14;;;;;;;11.88;8.45;;;12.10;99.90;;;;;;5045767;28;20699;-76
2022/11/04 01:32:42;;;;;;;10.07;7.85;;;12.10;99.90;;;;;;5051247;28;20219;-76
2022/11/04 01:35:10;;;;;;;9.93;7.32;;;12.10;99.90;;;;;;5048842;28;20211;-77
2022/11/04 01:37:38;;;;;;;9.40;7.43;;;12.00;99.90;;;;;;5055371;28;20223;-77
2022/11/04 01:40:06;;;;;;;13.93;7.32;;;12.00;99.90;;;;;;5030121;28;20203;-76
2022/11/04 01:42:34;;;;;;;15.48;8.35;;;12.00;99.90;;;;;;5047592;28;20220;-77
2022/11/04 01:45:02;;;;;;;7.47;6.80;;;12.00;99.90;;;;;;5049883;28;20195;-77
2022/11/04 01:47:37;;;;;;;6.95;6.25;;;12.00;99.90;;;;;;5045456;28;20238;-77
2022/11/04 01:50:09;;;;;;;6.30;5.78;;;12.00;99.90;;;;;;5043120;28;20256;-77
2022/11/04 01:52:42;;;;;;;5.93;4.93;;;12.00;99.90;;;;;;5045318;28;20227;-77
2022/11/04 01:55:14;;;;;;;5.78;5.28;;;12.00;99.90;;;;;;5046836;28;20589;-78
2022/11/04 01:57:45;;;;;;;5.20;4.70;;;12.00;99.90;;;;;;5048831;28;20221;-77
2022/11/04 02:00:14;;;;;;;5.57;5.07;;;12.00;99.90;;;;;;5052364;28;20205;-78
2022/11/04 02:02:51;;;;;;;6.35;5.75;;;12.00;99.90;;;;;;5049939;28;20211;-77
2022/11/04 02:05:21;;;;;;;6.53;5.93;;;12.00;99.90;;;;;;5049600;28;20222;-77
2022/11/04 02:07:51;;;;;;;5.80;5.30;;;12.00;99.90;;;;;;5053663;28;20219;-77
2022/11/04 02:10:22;;;;;;;6.18;5.57;;;12.10;99.90;;;;;;5051571;28;20201;-77
2022/11/04 02:12:49;;;;;;;5.65;5.15;;;12.10;99.90;;;;;;5050553;28;20222;-77
2022/11/04 02:15:17;;;;;;;6.57;5.47;;;12.10;99.90;;;;;;5045000;28;20718;-77
2022/11/04 02:18:17;;;;;;;6.75;6.05;;;12.20;99.90;;;;;;5050340;28;20214;-77
2022/11/04 02:21:20;;;;;;;7.53;6.82;;;12.10;99.90;;;;;;5039561;28;20307;-77
2022/11/04 02:24:15;;;;;;;12.20;7.45;;;12.10;99.90;;;;;;5031290;28;20222;-77
2022/11/04 02:27:04;;;;;;;7.45;6.75;;;12.00;99.90;;;;;;5029892;28;20654;-77
2022/11/04 02:30:13;;;;;;;42.65;10.70;;;12.00;99.90;;;;;;5031892;28;20200;-77
2022/11/04 02:33:14;;;;;;;7.93;7.22;;;11.90;99.90;;;;;;5027630;28;20219;-76
2022/11/04 02:35:48;;;;;;;8.85;8.02;;;11.90;99.90;;;;;;5019923;28;20206;-77
2022/11/04 02:38:28;;;;;;;13.90;8.63;;;11.90;99.90;;;;;;5040847;28;20222;-76
2022/11/04 02:41:04;;;;;;;7.72;6.60;;;11.90;99.90;;;;;;5044039;28;20215;-76
2022/11/04 02:43:37;;;;;;;12.52;6.07;;;11.80;99.90;;;;;;5043024;28;20223;-76
2022/11/04 02:46:09;;;;;;;6.53;6.00;;;11.70;99.90;;;;;;5046842;28;20194;-77
2022/11/04 02:48:44;;;;;;;6.60;5.90;;;11.70;99.90;;;;;;5049938;28;20219;-75
2022/11/04 02:51:16;;;;;;;5.90;5.40;;;11.70;99.90;;;;;;5045904;28;20596;-76
2022/11/04 02:53:48;;;;;;;6.20;5.60;;;11.70;99.90;;;;;;5041797;28;20218;-75
2022/11/04 02:56:19;;;;;;;5.40;5.00;;;11.80;99.90;;;;;;5047520;28;20661;-76
2022/11/04 02:58:53;;;;;;;6.78;6.18;;;11.80;99.90;;;;;;5041904;28;20214;-76
2022/11/04 03:01:23;;;;;;;6.15;5.65;;;11.80;99.90;;;;;;5044084;28;20281;-75
2022/11/04 03:04:01;;;;;;;6.28;5.68;;;11.80;99.90;;;;;;5046992;28;20233;-75
2022/11/04 03:06:29;;;;;;;143.93;11.32;;;11.80;99.90;;;;;;5045607;28;20206;-75
2022/11/04 03:08:59;;;;;;;94.82;8.45;;;11.80;99.90;;;;;;5043662;28;20691;-75
2022/11/04 03:11:29;;;;;;;6.40;5.90;;;11.70;99.90;;;;;;5045102;28;20724;-75
2022/11/04 03:14:02;;;;;;;77.30;10.45;;;11.60;99.90;;;;;;5044358;28;20212;-75
2022/11/04 03:16:33;;;;;;;6.13;5.60;;;11.60;99.90;;;;;;5026928;28;20201;-76
2022/11/04 03:19:09;;;;;;;9.23;7.53;;;11.60;99.90;;;;;;5039681;28;20215;-74
2022/11/04 03:21:42;;;;;;;7.43;6.68;;;11.60;99.90;;;;;;5029854;28;20693;-75
2022/11/04 03:24:09;;;;;;;9.52;6.25;;;11.60;99.90;;;;;;5052306;28;20201;-75
2022/11/04 03:26:42;;;;;;;25.00;5.72;;;11.60;99.90;;;;;;5051448;28;20199;-76
2022/11/04 03:29:21;;;;;;;7.20;5.70;;;11.60;99.90;;;;;;5050476;28;20215;-76
2022/11/04 03:31:56;;;;;;;6.30;5.80;;;11.50;99.90;;;;;;5053930;28;20213;-76
2022/11/04 03:34:25;;;;;;;6.40;5.90;;;11.50;99.90;;;;;;5045193;28;20209;-76
2022/11/04 03:36:52;;;;;;;5.97;5.43;;;11.50;99.90;;;;;;5053807;28;20225;-76
2022/11/04 03:39:20;;;;;;;6.20;5.70;;;11.60;99.90;;;;;;5050776;28;20223;-76
2022/11/04 03:41:51;;;;;;;5.82;5.32;;;11.60;99.90;;;;;;5050311;28;20221;-76
2022/11/04 03:44:19;;;;;;;6.35;5.82;;;11.70;99.90;;;;;;5048365;28;20207;-76
2022/11/04 03:46:47;;;;;;;6.22;5.68;;;11.70;99.90;;;;;;5048827;28;20203;-76
2022/11/04 03:49:16;;;;;;;6.43;5.85;;;11.70;99.90;;;;;;5045293;28;20219;-76
2022/11/04 03:51:45;;;;;;;6.45;5.85;;;11.80;99.90;;;;;;5042876;28;20214;-76
2022/11/04 03:54:14;;;;;;;6.10;5.55;;;11.80;99.90;;;;;;5050850;28;20194;-76
2022/11/04 03:57:04;;;;;;;5.90;5.30;;;11.80;99.90;;;;;;5028554;28;20643;-75
2022/11/04 03:59:59;;;;;;;21.30;7.18;;;11.80;99.90;;;;;;5044994;28;20540;-75
2022/11/04 04:02:36;;;;;;;6.82;6.10;;;11.80;99.90;;;;;;5041040;28;20226;-75
2022/11/04 04:05:10;;;;;;;16.60;6.97;;;11.70;99.90;;;;;;5046374;28;20202;-76
2022/11/04 04:07:44;;;;;;;67.50;10.65;;;11.70;99.90;;;;;;5045889;28;20226;-75
2022/11/04 04:13:03;;;;;;;47.20;9.38;;;11.50;99.90;;;;;;5041818;28;20221;-76
2022/11/04 04:15:41;;;;;;;16.92;7.25;;;11.40;99.90;;;;;;5048026;28;20851;-76
2022/11/04 04:18:13;;;;;;;7.88;7.18;;;11.40;99.90;;;;;;5047229;28;20234;-76
2022/11/04 04:20:46;;;;;;;7.38;6.30;;;11.40;99.90;;;;;;5044098;28;20206;-76
2022/11/04 04:28:54;;;;;;;7.10;6.43;;;11.50;99.90;;;;;;5046569;28;20226;-76
2022/11/04 04:34:09;;;;;;;8.45;6.32;;;11.60;99.90;;;;;;5049815;28;20222;-76
2022/11/04 04:36:44;;;;;;;14.25;6.68;;;11.60;99.90;;;;;;5049309;28;20249;-77
2022/11/04 04:45:00;;;;;;;39.20;8.23;;;11.50;99.90;;;;;;5047720;28;20278;-76
2022/11/04 04:47:49;;;;;;;12.25;7.93;;;11.50;99.90;;;;;;5048744;28;20225;-76
2022/11/04 04:50:19;;;;;;;9.32;8.35;;;11.40;99.90;;;;;;5051008;28;20194;-77
2022/11/04 04:52:48;;;;;;;7.35;6.75;;;11.40;99.90;;;;;;5047868;28;21622;-76
2022/11/04 04:55:18;;;;;;;6.85;6.25;;;11.40;99.90;;;;;;5053394;28;20207;-76
2022/11/04 04:57:46;;;;;;;6.60;6.00;;;11.40;99.90;;;;;;5048962;28;20219;-76
2022/11/04 05:00:15;;;;;;;6.15;5.55;;;11.40;99.90;;;;;;5045814;28;20203;-75
2022/11/04 05:02:43;;;;;;;5.95;5.45;;;11.40;99.90;;;;;;5047338;28;20219;-76
2022/11/04 05:05:12;;;;;;;6.25;5.72;;;11.40;99.90;;;;;;5051260;28;20210;-75
2022/11/04 05:07:39;;;;;;;6.70;6.10;;;11.40;99.90;;;;;;5050602;28;20225;-75
2022/11/04 05:10:09;;;;;;;7.22;6.53;;;11.40;99.90;;;;;;5048392;28;20207;-76
2022/11/04 05:15:24;;;;;;;6.50;5.90;;;11.40;99.90;;;;;;5053372;28;20252;-74
2022/11/04 05:17:56;;;;;;;6.18;5.68;;;11.40;99.90;;;;;;5045985;28;20230;-75
2022/11/04 05:20:24;;;;;;;6.28;5.68;;;11.40;99.90;;;;;;5049887;28;20199;-75
2022/11/04 05:22:51;;;;;;;5.65;5.15;;;11.40;99.90;;;;;;5051279;28;20568;-75
2022/11/04 05:25:19;;;;;;;5.90;5.40;;;11.40;99.90;;;;;;5045971;28;20206;-76
2022/11/04 05:27:48;;;;;;;5.75;5.25;;;11.40;99.90;;;;;;5049806;28;20265;-76
2022/11/04 05:30:15;;;;;;;6.78;6.15;;;11.40;99.90;;;;;;5049501;28;20211;-76
2022/11/04 05:32:42;;;;;;;6.40;5.80;;;11.40;99.90;;;;;;5047810;28;20223;-76
2022/11/04 05:35:10;;;;;;;6.63;5.78;;;11.30;99.90;;;;;;5049691;28;20207;-76
2022/11/04 05:37:37;;;;;;;6.28;5.68;;;11.30;99.90;;;;;;5048628;28;20281;-76
2022/11/04 05:40:06;;;;;;;10.35;9.18;;;11.30;99.90;;;;;;5043968;28;20549;-76
2022/11/04 05:42:35;;;;;;;9.30;8.25;;;11.20;99.90;;;;;;5046214;28;20218;-76
2022/11/04 05:45:05;;;;;;;8.18;7.47;;;11.20;99.90;;;;;;5047983;28;20234;-76
2022/11/04 05:47:32;;;;;;;7.53;6.82;;;11.20;99.90;;;;;;5043747;28;20220;-76
2022/11/04 05:50:00;;;;;;;7.57;6.88;;;11.20;99.90;;;;;;5045549;28;20199;-76
2022/11/04 05:52:28;;;;;;;7.18;6.47;;;11.20;99.90;;;;;;5048372;28;20226;-76
2022/11/04 05:54:56;;;;;;;9.02;8.13;;;11.20;99.90;;;;;;5049616;28;20206;-76
2022/11/04 05:57:23;;;;;;;8.07;7.35;;;11.10;99.90;;;;;;5045366;28;20288;-75
2022/11/04 05:59:51;;;;;;;6.20;5.70;;;11.10;99.90;;;;;;5050505;28;20195;-76
2022/11/04 06:02:20;;;;;;;6.15;5.65;;;11.00;99.90;;;;;;5056977;28;20233;-76
2022/11/04 06:04:47;;;;;;;5.70;5.20;;;11.00;99.90;;;;;;5050404;28;20206;-76
2022/11/04 06:07:15;;;;;;;6.22;4.82;;;11.00;99.90;;;;;;5045083;28;20229;-75
2022/11/04 06:09:42;;;;;;;5.40;4.90;;;11.00;99.90;;;;;;5048653;28;20226;-76
2022/11/04 06:12:13;;;;;;;4.45;4.05;;;11.00;99.90;;;;;;5042018;28;20218;-76
2022/11/04 06:14:43;;;;;;;11.48;6.22;;;10.90;99.90;;;;;;5046528;28;20195;-74
2022/11/04 06:17:14;;;;;;;39.85;8.73;;;11.00;99.90;;;;;;5043547;28;20215;-75
2022/11/04 06:19:43;;;;;;;11.63;7.50;;;11.00;99.90;;;;;;5042621;28;20210;-75
2022/11/04 06:22:12;;;;;;;7.68;6.90;;;11.00;99.90;;;;;;5043149;28;20306;-75
2022/11/04 06:24:40;;;;;;;16.33;7.88;;;10.90;99.90;;;;;;5042920;28;20191;-75
2022/11/04 06:27:08;;;;;;;39.60;7.70;;;10.90;99.90;;;;;;5040048;28;20229;-75
2022/11/04 06:29:39;;;;;;;7.10;6.32;;;10.90;99.90;;;;;;5038869;28;20206;-75
2022/11/04 06:32:07;;;;;;;23.17;7.22;;;10.80;99.90;;;;;;5044192;28;20272;-75
2022/11/04 06:34:36;;;;;;;455.92;23.15;;;10.80;99.90;;;;;;5041585;28;20203;-75
2022/11/04 06:37:05;;;;;;;5.78;5.28;;;10.80;99.90;;;;;;5038831;28;20288;-74
2022/11/04 06:39:33;;;;;;;4.60;4.20;;;10.70;99.90;;;;;;5042123;28;20191;-74
2022/11/04 06:42:00;;;;;;;3.17;2.88;;;10.60;99.90;;;;;;5037636;28;20237;-75
2022/11/04 06:44:28;;;;;;;2.80;2.60;;;10.50;99.90;;;;;;5043053;28;20199;-75
2022/11/04 06:46:56;;;;;;;2.33;2.17;;;10.40;99.90;;;;;;5047523;28;20230;-75
2022/11/04 06:49:24;;;;;;;2.38;2.17;;;10.30;99.90;;;;;;5027052;28;20590;-75
2022/11/04 06:51:51;;;;;;;2.45;2.00;;;10.30;99.90;;;;;;5043717;28;20306;-74
2022/11/04 06:54:20;;;;;;;1.83;1.73;;;10.30;99.90;;;;;;5042617;28;20207;-75
2022/11/04 06:56:47;;;;;;;1.90;1.80;;;10.20;99.90;;;;;;5043250;28;20206;-75
2022/11/04 06:59:16;;;;;;;1.45;1.35;;;10.10;99.90;;;;;;5043806;28;20237;-75
2022/11/04 07:01:44;;;;;;;2.00;1.90;;;10.00;99.90;;;;;;5039518;28;20199;-74
2022/11/04 07:04:11;;;;;;;1.50;1.50;;;10.00;99.90;;;;;;5043306;28;20571;-75
2022/11/04 07:06:43;;;;;;;1.70;1.60;;;9.90;99.90;;;;;;5041668;28;20198;-74
2022/11/04 07:09:12;;;;;;;1.70;1.60;;;9.80;99.90;;;;;;5043384;28;20215;-74
2022/11/04 07:11:42;;;;;;;1.63;1.52;;;9.70;99.90;;;;;;5042335;28;20695;-75
2022/11/04 07:14:10;;;;;;;1.58;1.48;;;9.60;99.90;;;;;;5042020;28;20203;-73
2022/11/04 07:16:37;;;;;;;1.48;1.45;;;9.60;99.90;;;;;;5043798;28;20205;-74
2022/11/04 07:19:05;;;;;;;1.58;1.50;;;9.60;99.90;;;;;;5043320;28;20590;-75
2022/11/04 07:21:33;;;;;;;1.67;1.58;;;9.50;99.90;;;;;;5051836;28;20836;-74
2022/11/04 07:24:01;;;;;;;1.40;1.40;;;9.50;99.90;;;;;;5041574;28;20662;-73
2022/11/04 07:26:29;;;;;;;1.20;1.20;;;9.60;99.90;;;;;;5037926;28;20681;-74
2022/11/04 07:28:59;;;;;;;2.63;2.42;;;9.50;99.90;;;;;;5043242;28;20218;-74
2022/11/04 07:31:27;;;;;;;1.70;1.60;;;9.50;99.90;;;;;;5034633;28;20752;-73
2022/11/04 07:33:55;;;;;;;1.80;1.70;;;9.50;99.90;;;;;;5043829;28;20215;-75
2022/11/04 07:36:22;;;;;;;1.70;1.60;;;9.40;99.90;;;;;;5042238;28;20199;-74
2022/11/04 07:38:50;;;;;;;2.33;2.22;;;9.30;99.90;;;;;;5042008;28;20235;-74
2022/11/04 07:41:18;;;;;;;1.90;1.80;;;9.20;99.90;;;;;;5038378;28;20207;-75
2022/11/04 07:43:50;;;;;;;1.30;1.30;;;9.10;99.90;;;;;;5047315;28;20221;-74
2022/11/04 07:46:20;;;;;;;1.80;1.70;;;9.10;99.90;;;;;;5044008;28;20195;-75
2022/11/04 07:48:48;;;;;;;1.95;1.85;;;8.90;99.90;;;;;;5043684;28;20223;-74
2022/11/04 07:51:17;;;;;;;1.80;1.70;;;8.90;99.90;;;;;;5042931;28;20656;-74
2022/11/04 07:53:45;;;;;;;1.88;1.75;;;8.90;99.90;;;;;;5044267;28;20215;-75
2022/11/04 07:56:13;;;;;;;2.10;2.00;;;8.80;99.90;;;;;;5042950;28;20748;-74
2022/11/04 07:58:42;;;;;;;1.70;1.60;;;8.80;99.90;;;;;;5042611;28;20230;-76
2022/11/04 08:01:11;;;;;;;2.05;1.95;;;8.80;99.90;;;;;;5039197;28;20571;-75
2022/11/04 08:03:40;;;;;;;1.92;1.83;;;8.80;99.90;;;;;;5036472;28;20222;-74
2022/11/04 08:06:09;;;;;;;1.55;1.55;;;8.80;99.90;;;;;;5037984;28;20201;-75
2022/11/04 08:08:37;;;;;;;1.80;1.70;;;8.90;99.90;;;;;;5039204;28;20582;-74
2022/11/04 08:11:06;;;;;;;1.60;1.60;;;8.90;99.90;;;;;;5042880;28;20203;-74
2022/11/04 08:13:36;;;;;;;1.67;1.63;;;8.90;99.90;;;;;;5044353;28;20296;-74
2022/11/04 08:16:05;;;;;;;1.48;1.48;;;8.90;99.90;;;;;;5044875;28;20201;-74
2022/11/04 08:18:33;;;;;;;1.90;1.80;;;8.90;99.90;;;;;;5042242;28;20226;-74
2022/11/04 08:21:03;;;;;;;2.05;1.95;;;8.90;99.90;;;;;;5043838;28;20210;-74
2022/11/04 08:23:33;;;;;;;1.98;1.88;;;8.80;99.90;;;;;;5043190;28;20219;-74
2022/11/04 08:26:01;;;;;;;1.90;1.80;;;8.80;99.90;;;;;;5045296;28;20205;-75
2022/11/04 08:28:29;;;;;;;1.90;1.80;;;8.70;99.90;;;;;;5041798;28;21464;-74
2022/11/04 08:30:58;;;;;;;1.80;1.70;;;8.60;99.90;;;;;;5044378;28;20207;-75
2022/11/04 08:33:26;;;;;;;2.45;2.25;;;8.60;99.90;;;;;;5044758;28;20739;-75
2022/11/04 08:35:55;;;;;;;2.65;2.47;;;8.60;99.90;;;;;;5043212;28;20195;-75
2022/11/04 08:38:24;;;;;;;3.00;2.80;;;8.60;99.90;;;;;;5045266;28;20223;-75
2022/11/04 08:40:52;;;;;;;2.55;2.30;;;8.60;99.90;;;;;;5048925;28;20225;-75
2022/11/04 08:43:19;;;;;;;2.35;2.15;;;8.60;99.90;;;;;;5045255;28;20980;-75
2022/11/04 08:45:47;;;;;;;2.20;2.10;;;8.60;99.90;;;;;;5047504;28;20199;-75
2022/11/04 08:48:15;;;;;;;2.08;1.98;;;8.60;99.90;;;;;;5046049;28;20280;-75
2022/11/04 08:50:43;;;;;;;1.88;1.77;;;8.70;99.90;;;;;;5041884;28;20204;-75
2022/11/04 08:53:10;;;;;;;1.92;1.83;;;8.70;99.90;;;;;;5047202;28;20214;-75
2022/11/04 08:55:40;;;;;;;1.65;1.65;;;8.80;99.90;;;;;;5046795;28;20195;-75
2022/11/04 08:58:07;;;;;;;1.77;1.67;;;8.70;99.90;;;;;;5040620;28;20227;-74
2022/11/04 09:00:35;;;;;;;1.70;1.60;;;8.60;99.90;;;;;;5044119;28;20187;-74
2022/11/04 09:03:03;;;;;;;1.80;1.70;;;8.50;99.90;;;;;;5048812;28;20221;-74
2022/11/04 09:05:31;;;;;;;1.52;1.42;;;8.40;99.90;;;;;;5045285;28;20281;-74
2022/11/04 09:07:59;;;;;;;1.60;1.60;;;8.30;99.90;;;;;;5046970;28;20243;-75
2022/11/04 09:10:27;;;;;;;1.50;1.50;;;8.30;99.90;;;;;;5041605;28;20199;-75
2022/11/04 09:12:56;;;;;;;1.60;1.60;;;8.30;99.90;;;;;;5046139;28;20342;-75
2022/11/04 09:15:24;;;;;;;1.60;1.60;;;8.40;99.90;;;;;;5045308;28;20199;-74
2022/11/04 09:17:51;;;;;;;2.10;2.00;;;8.40;99.90;;;;;;5045426;28;20226;-75
2022/11/04 09:20:20;;;;;;;2.60;2.50;;;8.30;99.90;;;;;;5047846;28;20413;-75
2022/11/04 09:22:49;;;;;;;2.03;1.92;;;8.30;99.90;;;;;;5044939;28;20222;-75
2022/11/04 09:25:17;;;;;;;2.25;2.15;;;8.40;99.90;;;;;;5047074;28;20199;-74
2022/11/04 09:27:45;;;;;;;3.90;3.60;;;8.40;99.90;;;;;;5039449;28;20679;-72
2022/11/04 09:30:14;;;;;;;6.00;5.18;;;8.40;99.90;;;;;;5042134;28;20206;-73
2022/11/04 09:32:42;;;;;;;5.80;5.28;;;8.40;99.90;;;;;;5041907;28;20242;-73
2022/11/04 09:35:10;;;;;;;7.28;6.57;;;8.40;99.90;;;;;;5049521;28;20680;-72
2022/11/04 09:37:38;;;;;;;6.07;5.47;;;8.40;99.90;;;;;;5059054;28;20535;-72
2022/11/04 09:40:06;;;;;;;5.05;4.35;;;8.40;99.90;;;;;;5041654;28;20683;-73
2022/11/04 09:42:47;;;;;;;4.40;4.00;;;8.40;99.90;;;;;;5040984;28;20214;-72
2022/11/04 09:45:18;;;;;;;5.43;4.93;;;8.40;99.90;;;;;;5043507;28;20266;-73
2022/11/04 09:47:49;;;;;;;3.20;3.00;;;8.40;99.90;;;;;;5041449;28;20219;-73
2022/11/04 09:50:23;;;;;;;2.53;2.42;;;8.50;99.90;;;;;;5039183;28;20203;-73
2022/11/04 09:52:56;;;;;;;2.58;2.38;;;8.50;99.90;;;;;;5042664;28;20215;-73
2022/11/04 09:55:31;;;;;;;2.10;2.00;;;8.50;99.90;;;;;;5039359;28;20191;-73
2022/11/04 09:57:59;;;;;;;2.10;2.00;;;8.60;99.90;;;;;;5043137;28;20221;-74
2022/11/04 10:00:32;;;;;;;1.83;1.73;;;8.70;99.90;;;;;;5040466;28;20199;-74
2022/11/04 10:03:15;;;;;;;1.70;1.70;;;8.80;99.90;;;;;;5046501;28;20222;-73
2022/11/04 10:05:57;;;;;;;2.13;2.03;;;8.90;99.90;;;;;;5038582;28;20194;-74
2022/11/04 10:08:47;;;;;;;1.98;1.88;;;9.10;99.90;;;;;;5041175;28;20226;-74
2022/11/04 10:11:22;;;;;;;1.77;1.70;;;9.30;99.90;;;;;;5039431;28;20210;-74
2022/11/04 10:14:07;;;;;;;1.83;1.73;;;9.40;99.90;;;;;;5040942;28;20222;-74
2022/11/04 10:16:51;;;;;;;2.90;2.70;;;9.60;99.90;;;;;;5038499;28;20459;-74
2022/11/04 10:19:35;;;;;;;4.25;3.92;;;9.90;99.90;;;;;;5043562;28;20257;-73
2022/11/04 10:22:07;;;;;;;3.60;3.30;;;10.10;99.90;;;;;;5040384;28;20784;-73
2022/11/04 10:24:42;;;;;;;2.92;2.65;;;10.30;99.90;;;;;;5041151;28;20857;-74
2022/11/04 10:27:18;;;;;;;2.22;2.13;;;10.50;99.90;;;;;;5040048;28;20273;-74
2022/11/04 10:29:47;;;;;;;2.08;1.98;;;10.90;99.90;;;;;;5045784;28;20194;-74
2022/11/04 10:32:21;;;;;;;2.40;1.90;;;11.30;99.90;;;;;;5043189;28;20215;-74
2022/11/04 10:34:57;;;;;;;2.08;1.90;;;11.50;99.90;;;;;;5042387;28;20194;-75
2022/11/04 10:37:26;;;;;;;2.08;1.98;;;11.80;99.90;;;;;;5043675;28;20233;-73
2022/11/04 10:39:59;;;;;;;1.98;1.88;;;12.00;99.90;;;;;;5042684;28;20207;-74
2022/11/04 10:42:26;;;;;;;1.80;1.70;;;12.10;99.90;;;;;;5040092;28;20219;-75
2022/11/04 10:44:54;;;;;;;1.55;1.50;;;12.10;99.90;;;;;;5041211;28;20261;-74
2022/11/04 10:47:36;;;;;;;1.70;1.70;;;11.80;99.90;;;;;;5048105;28;20214;-74
2022/11/04 10:50:23;;;;;;;1.85;1.75;;;11.40;99.90;;;;;;5045104;28;20194;-75
2022/11/04 10:52:50;;;;;;;1.63;1.60;;;11.10;99.90;;;;;;5041209;28;20301;-74
2022/11/04 10:55:30;;;;;;;1.90;1.80;;;10.90;99.90;;;;;;5043360;28;20198;-74
2022/11/04 10:57:59;;;;;;;1.67;1.65;;;10.80;99.90;;;;;;5040390;28;20233;-74
2022/11/04 11:00:34;;;;;;;2.15;1.95;;;10.80;99.90;;;;;;5036976;28;20201;-74
2022/11/04 11:03:22;;;;;;;1.75;1.70;;;10.70;99.90;;;;;;5039873;28;20226;-74
2022/11/04 11:05:49;;;;;;;1.85;1.75;;;10.60;99.90;;;;;;5041767;28;20590;-74
2022/11/04 11:08:29;;;;;;;1.95;1.85;;;10.50;99.90;;;;;;5032685;28;20233;-74
2022/11/04 11:10:56;;;;;;;2.00;1.90;;;10.40;99.90;;;;;;5036208;28;20293;-74
2022/11/04 11:13:28;;;;;;;2.13;2.00;;;10.40;99.90;;;;;;5035980;28;20250;-75
2022/11/04 11:16:08;;;;;;;2.17;2.08;;;10.50;99.90;;;;;;5039655;28;20191;-75
2022/11/04 11:18:38;;;;;;;2.72;2.53;;;10.50;99.90;;;;;;5040141;28;20226;-73
2022/11/04 11:21:09;;;;;;;4.15;3.50;;;10.60;99.90;;;;;;5040389;28;20219;-74
2022/11/04 11:23:40;;;;;;;3.38;3.08;;;10.60;99.90;;;;;;5041596;28;20332;-74
2022/11/04 11:26:09;;;;;;;2.72;2.45;;;10.70;99.90;;;;;;5039103;28;20566;-74
2022/11/04 11:28:39;;;;;;;2.53;2.40;;;10.70;99.90;;;;;;5038000;28;20226;-74
2022/11/04 11:31:15;;;;;;;1.63;1.52;;;10.70;99.90;;;;;;5042708;28;20284;-75
2022/11/04 11:33:49;;;;;;;2.15;2.05;;;10.50;99.90;;;;;;5041479;28;20363;-75
2022/11/04 11:36:23;;;;;;;2.33;2.17;;;10.40;99.90;;;;;;5040445;28;20288;-75
2022/11/04 11:39:04;;;;;;;2.28;2.08;;;10.30;99.90;;;;;;5039580;28;20230;-75
2022/11/04 11:41:34;;;;;;;1.80;1.70;;;10.30;99.90;;;;;;5034780;28;20210;-75
2022/11/04 11:44:06;;;;;;;1.67;1.58;;;10.20;99.90;;;;;;5041282;28;20825;-74
2022/11/04 11:46:36;;;;;;;2.13;2.03;;;10.20;99.90;;;;;;5041968;28;20248;-74
2022/11/04 11:49:26;;;;;;;2.08;1.98;;;10.20;99.90;;;;;;5040902;28;20218;-73
2022/11/04 11:51:53;;;;;;;2.10;2.00;;;10.30;99.90;;;;;;5038456;28;20284;-75
2022/11/04 11:54:29;;;;;;;3.88;2.20;;;10.40;99.90;;;;;;5039446;28;20253;-73
2022/11/04 11:56:58;;;;;;;1.98;1.88;;;10.50;99.90;;;;;;5039820;28;20218;-74
2022/11/04 11:59:36;;;;;;;2.40;2.30;;;10.50;99.90;;;;;;5038626;28;20229;-74
2022/11/04 12:02:25;;;;;;;1.70;1.60;;;10.50;99.90;;;;;;5044062;28;20225;-75
2022/11/04 12:04:56;;;;;;;2.78;2.58;;;10.60;99.90;;;;;;5038126;28;20221;-75
2022/11/04 12:07:37;;;;;;;3.83;3.53;;;10.60;99.90;;;;;;5036233;28;20277;-75
2022/11/04 12:10:13;;;;;;;3.30;3.00;;;10.70;99.90;;;;;;5032606;28;20635;-74
2022/11/04 12:12:57;;;;;;;4.20;2.90;;;10.80;99.90;;;;;;5035449;28;20226;-75
2022/11/04 12:15:33;;;;;;;2.47;2.28;;;10.80;99.90;;;;;;5037505;28;20202;-75
2022/11/04 12:18:17;;;;;;;2.95;2.65;;;10.80;99.90;;;;;;5041287;28;20222;-74
2022/11/04 12:20:57;;;;;;;2.30;2.20;;;10.70;99.90;;;;;;5039485;28;20199;-74
2022/11/04 12:23:32;;;;;;;2.05;1.95;;;11.10;99.90;;;;;;5034624;28;20233;-75
2022/11/04 12:26:14;;;;;;;2.22;2.13;;;11.70;99.90;;;;;;5039896;28;20198;-75
2022/11/04 12:28:56;;;;;;;2.50;2.40;;;12.20;99.90;;;;;;5038349;28;20624;-75
2022/11/04 12:31:34;;;;;;;2.10;2.00;;;12.70;99.90;;;;;;5034375;28;20207;-75
2022/11/04 12:34:13;;;;;;;1.98;1.88;;;13.00;99.90;;;;;;5042422;28;20684;-74
2022/11/04 12:36:56;;;;;;;1.55;1.45;;;13.20;99.90;;;;;;5038578;28;20286;-74
2022/11/04 12:39:41;;;;;;;1.77;1.67;;;13.40;99.90;;;;;;5043459;28;20971;-74
2022/11/04 12:42:19;;;;;;;1.48;1.38;;;13.60;99.90;;;;;;5040189;28;20230;-74
2022/11/04 12:44:54;;;;;;;1.48;1.48;;;13.50;99.90;;;;;;5043006;28;20199;-74
2022/11/04 12:47:35;;;;;;;1.67;1.58;;;13.40;99.90;;;;;;5037942;28;20813;-75
2022/11/04 12:50:15;;;;;;;1.30;1.30;;;13.40;99.90;;;;;;5040842;28;20668;-75
2022/11/04 12:53:13;;;;;;;1.40;1.30;;;13.20;99.90;;;;;;5042264;28;20220;-75
2022/11/04 12:55:49;;;;;;;1.58;1.48;;;13.00;99.90;;;;;;5040037;28;20218;-75
2022/11/04 12:58:26;;;;;;;1.52;1.50;;;13.00;99.90;;;;;;5039410;28;20476;-75
2022/11/04 13:00:59;;;;;;;1.40;1.30;;;13.10;99.90;;;;;;5046594;28;20747;-75
2022/11/04 13:03:33;;;;;;;1.40;1.30;;;13.10;99.90;;;;;;5045848;28;20214;-75
2022/11/04 13:06:05;;;;;;;1.30;1.30;;;13.00;99.90;;;;;;5043662;28;20190;-75
2022/11/04 13:08:41;;;;;;;1.58;1.30;;;13.00;99.90;;;;;;5044114;28;20588;-75
2022/11/04 13:11:21;;;;;;;1.60;1.50;;;13.10;99.90;;;;;;5043681;28;20252;-75
2022/11/04 13:13:57;;;;;;;1.80;1.70;;;13.20;99.90;;;;;;5042758;28;20711;-75
2022/11/04 13:16:24;;;;;;;1.65;1.50;;;13.30;99.90;;;;;;5041264;28;20199;-75
2022/11/04 13:18:53;;;;;;;1.38;1.30;;;13.30;99.90;;;;;;5042542;28;20230;-75
2022/11/04 13:21:24;;;;;;;1.90;1.80;;;13.50;99.90;;;;;;5044367;28;20187;-75
2022/11/04 13:23:59;;;;;;;3.05;1.73;;;13.60;99.90;;;;;;5042803;28;20219;-75
2022/11/04 13:26:27;;;;;;;1.67;1.58;;;13.60;99.90;;;;;;5041000;28;20214;-75
2022/11/04 13:29:00;;;;;;;1.63;1.45;;;13.50;99.90;;;;;;5044659;28;20743;-75
2022/11/04 13:31:40;;;;;;;1.67;1.58;;;13.40;99.90;;;;;;5041323;28;20668;-74
2022/11/04 13:34:14;;;;;;;1.65;1.55;;;13.30;99.90;;;;;;5038762;28;20225;-75
2022/11/04 13:36:48;;;;;;;2.15;1.60;;;13.30;99.90;;;;;;5040638;28;20729;-75
2022/11/04 13:39:23;;;;;;;1.40;1.40;;;13.10;99.90;;;;;;5042429;28;20598;-75
2022/11/04 13:42:08;;;;;;;1.30;1.30;;;12.70;99.90;;;;;;5048213;28;20226;-74
2022/11/04 13:44:38;;;;;;;2.13;1.73;;;12.80;99.90;;;;;;5049827;28;20730;-75
2022/11/04 13:47:17;;;;;;;2.15;1.45;;;12.90;99.90;;;;;;5044112;28;20237;-75